createdAt,value
2019-05-13T00:02:14.564Z,11.37
2019-05-13T00:04:44.450Z,11.33
2019-05-13T00:07:14.584Z,11.32
2019-05-13T00:09:44.788Z,11.28
2019-05-13T00:12:14.652Z,11.26
2019-05-13T00:14:44.754Z,11.22
2019-05-13T00:17:14.781Z,11.19
2019-05-13T00:19:44.715Z,11.15
2019-05-13T00:22:14.728Z,11.13
2019-05-13T00:24:45.081Z,11.10
2019-05-13T00:27:14.771Z,11.08
2019-05-13T00:29:44.722Z,11.04
2019-05-13T00:32:14.862Z,11.00
2019-05-13T00:34:44.798Z,10.97
2019-05-13T00:37:14.922Z,10.94
2019-05-13T00:39:44.931Z,10.91
2019-05-13T00:42:14.960Z,10.88
2019-05-13T00:44:44.957Z,10.87
2019-05-13T00:47:15.325Z,10.84
2019-05-13T00:49:45.000Z,10.80
2019-05-13T00:52:15.458Z,10.79
2019-05-13T00:54:45.130Z,10.77
2019-05-13T00:57:15.150Z,10.75
2019-05-13T00:59:45.153Z,10.73
2019-05-13T01:02:15.252Z,10.72
2019-05-13T01:04:45.322Z,10.69
2019-05-13T01:07:25.357Z,10.67
2019-05-13T01:09:46.493Z,10.62
2019-05-13T01:12:16.110Z,10.58
2019-05-13T01:14:45.476Z,10.53
2019-05-13T01:17:15.428Z,10.51
2019-05-13T01:19:45.396Z,10.47
2019-05-13T01:22:15.464Z,10.44
2019-05-13T01:24:45.529Z,10.40
2019-05-13T01:27:15.791Z,10.35
2019-05-13T01:29:45.563Z,10.30
2019-05-13T01:32:15.926Z,10.27
2019-05-13T01:34:45.942Z,10.22
2019-05-13T01:37:15.621Z,10.18
2019-05-13T01:39:45.636Z,10.14
2019-05-13T01:42:15.677Z,10.10
2019-05-13T01:44:45.757Z,10.07
2019-05-13T01:47:16.020Z,10.05
2019-05-13T01:49:45.807Z,10.02
2019-05-13T01:52:15.810Z,9.99
2019-05-13T01:54:45.817Z,9.98
2019-05-13T01:57:15.866Z,9.97
2019-05-13T01:59:45.954Z,9.94
2019-05-13T02:02:15.972Z,9.91
2019-05-13T02:04:45.978Z,9.89
2019-05-13T02:07:16.003Z,9.89
2019-05-13T02:09:46.099Z,9.90
2019-05-13T02:12:16.591Z,9.91
2019-05-13T02:14:46.169Z,9.93
2019-05-13T02:17:16.193Z,9.94
2019-05-13T02:19:46.189Z,9.98
2019-05-13T02:22:16.228Z,10.00
2019-05-13T02:24:46.219Z,10.00
2019-05-13T02:27:16.284Z,9.98
2019-05-13T02:29:46.347Z,9.94
2019-05-13T02:32:35.666Z,9.90
2019-05-13T02:35:06.537Z,9.82
2019-05-13T02:37:35.911Z,9.73
2019-05-13T02:40:07.286Z,9.67
2019-05-13T02:42:36.657Z,9.60
2019-05-13T02:45:06.933Z,9.53
2019-05-13T02:47:36.309Z,9.50
2019-05-13T02:50:08.592Z,9.46
2019-05-13T02:52:38.261Z,9.41
2019-05-13T02:55:07.766Z,9.40
2019-05-13T02:57:37.144Z,9.39
2019-05-13T03:00:12.913Z,9.39
2019-05-13T03:02:43.730Z,9.36
2019-05-13T03:05:14.212Z,9.34
2019-05-13T03:07:43.709Z,9.33
2019-05-13T03:10:14.378Z,9.34
2019-05-13T03:12:44.005Z,9.32
2019-05-13T03:15:14.312Z,9.31
2019-05-13T03:17:45.886Z,9.27
2019-05-13T03:20:16.941Z,9.25
2019-05-13T03:22:47.031Z,9.18
2019-05-13T03:25:17.128Z,9.12
2019-05-13T03:27:47.172Z,9.06
2019-05-13T03:30:17.674Z,8.98
2019-05-13T03:32:58.580Z,8.92
2019-05-13T03:35:18.676Z,8.86
2019-05-13T03:37:48.032Z,8.79
2019-05-13T03:40:17.476Z,8.72
2019-05-13T03:42:53.475Z,8.66
2019-05-13T03:45:25.526Z,8.60
2019-05-13T03:47:58.470Z,8.51
2019-05-13T03:50:33.420Z,8.47
2019-05-13T03:53:02.692Z,8.41
2019-05-13T03:55:32.858Z,8.36
2019-05-13T03:58:03.163Z,8.34
2019-05-13T04:00:33.568Z,8.32
2019-05-13T04:03:03.551Z,8.32
2019-05-13T04:05:33.880Z,8.32
2019-05-13T04:08:03.645Z,8.35
2019-05-13T04:10:33.654Z,8.44
2019-05-13T04:13:03.996Z,8.61
2019-05-13T04:15:33.889Z,8.85
2019-05-13T04:18:03.348Z,9.15
2019-05-13T04:20:33.424Z,9.54
2019-05-13T04:23:03.363Z,9.93
2019-05-13T04:25:32.852Z,10.37
2019-05-13T04:28:03.503Z,10.86
2019-05-13T04:30:33.337Z,11.35
2019-05-13T04:33:03.298Z,11.84
2019-05-13T04:35:33.581Z,12.29
2019-05-13T04:38:05.221Z,12.68
2019-05-13T04:40:34.284Z,13.00
2019-05-13T04:43:03.739Z,13.28
2019-05-13T04:45:33.309Z,13.50
2019-05-13T04:48:03.458Z,13.70
2019-05-13T04:50:33.289Z,13.87
2019-05-13T04:53:03.332Z,14.01
2019-05-13T04:55:33.487Z,14.06
2019-05-13T04:58:03.675Z,14.07
2019-05-13T05:01:15.717Z,14.04
2019-05-13T05:03:58.191Z,13.95
2019-05-13T05:06:33.166Z,13.91
2019-05-13T05:09:12.656Z,13.95
2019-05-13T05:12:14.225Z,14.10
2019-05-13T05:15:14.874Z,14.20
2019-05-13T05:18:06.845Z,14.06
2019-05-13T05:20:46.324Z,13.93
2019-05-13T05:23:25.458Z,13.83
2019-05-13T05:26:18.501Z,13.68
2019-05-13T05:29:17.057Z,13.51
2019-05-13T05:32:25.302Z,13.35
2019-05-13T05:35:32.419Z,13.20
2019-05-13T05:38:15.472Z,13.01
2019-05-13T05:40:48.253Z,12.88
2019-05-13T05:43:22.262Z,12.80
2019-05-13T05:45:54.100Z,12.75
2019-05-13T05:48:26.014Z,12.76
2019-05-13T05:50:58.327Z,12.77
2019-05-13T05:53:31.906Z,12.87
2019-05-13T05:56:03.408Z,12.97
2019-05-13T05:58:35.018Z,13.07
2019-05-13T06:01:06.361Z,13.24
2019-05-13T06:03:38.704Z,13.43
2019-05-13T06:06:08.506Z,13.67
2019-05-13T06:08:38.242Z,14.05
2019-05-13T06:11:08.991Z,14.47
2019-05-13T06:13:42.070Z,14.91
2019-05-13T06:16:12.314Z,15.45
2019-05-13T06:18:41.933Z,15.99
2019-05-13T06:21:12.186Z,16.37
2019-05-13T06:23:41.988Z,16.68
2019-05-13T06:26:12.623Z,16.99
2019-05-13T06:28:42.222Z,17.21
2019-05-13T06:31:12.386Z,17.37
2019-05-13T06:33:42.355Z,17.58
2019-05-13T06:36:11.741Z,17.70
2019-05-13T06:38:42.459Z,17.95
2019-05-13T06:41:14.583Z,18.28
2019-05-13T06:43:43.097Z,18.63
2019-05-13T06:46:12.540Z,18.85
2019-05-13T06:48:41.900Z,19.11
2019-05-13T06:51:11.679Z,19.21
2019-05-13T06:53:41.537Z,19.22
2019-05-13T06:56:12.108Z,19.08
2019-05-13T06:58:41.792Z,18.91
2019-05-13T07:01:11.637Z,18.80
2019-05-13T07:03:42.016Z,18.82
2019-05-13T07:06:12.342Z,18.84
2019-05-13T07:08:42.051Z,18.87
2019-05-13T07:11:18.636Z,18.84
2019-05-13T07:13:42.805Z,18.89
2019-05-13T07:16:12.201Z,19.14
2019-05-13T07:18:41.700Z,19.41
2019-05-13T07:21:12.530Z,19.75
2019-05-13T07:23:42.377Z,20.10
2019-05-13T07:26:12.379Z,20.24
2019-05-13T07:28:42.825Z,20.42
2019-05-13T07:31:12.726Z,20.69
2019-05-13T07:33:42.746Z,21.06
2019-05-13T07:36:12.844Z,21.18
2019-05-13T07:38:42.448Z,21.12
2019-05-13T07:41:12.129Z,21.07
2019-05-13T07:43:42.662Z,21.12
2019-05-13T07:46:12.771Z,21.20
2019-05-13T07:48:42.250Z,21.23
2019-05-13T07:51:12.086Z,21.21
2019-05-13T07:53:46.680Z,21.27
2019-05-13T07:56:16.319Z,21.33
2019-05-13T07:58:45.775Z,21.29
2019-05-13T08:01:15.171Z,21.27
2019-05-13T08:03:44.614Z,21.20
2019-05-13T08:06:14.938Z,21.14
2019-05-13T08:08:44.362Z,21.17
2019-05-13T08:11:13.792Z,21.25
2019-05-13T08:13:44.546Z,21.43
2019-05-13T08:16:14.246Z,21.75
2019-05-13T08:18:43.955Z,22.13
2019-05-13T08:21:13.468Z,22.24
2019-05-13T08:23:43.182Z,22.33
2019-05-13T08:26:12.621Z,22.61
2019-05-13T08:28:57.244Z,22.90
2019-05-13T08:31:13.116Z,23.14
2019-05-13T08:33:42.591Z,23.45
2019-05-13T08:36:12.407Z,23.70
2019-05-13T08:38:43.203Z,23.88
2019-05-13T08:41:18.846Z,24.13
2019-05-13T08:43:43.991Z,24.27
2019-05-13T08:46:14.088Z,24.40
2019-05-13T08:48:43.686Z,24.55
2019-05-13T08:51:13.097Z,24.55
2019-05-13T08:53:42.632Z,24.50
2019-05-13T08:56:12.331Z,24.32
2019-05-13T08:58:41.802Z,23.87
2019-05-13T09:01:12.415Z,23.44
2019-05-13T09:03:41.946Z,23.12
2019-05-13T09:06:11.709Z,22.91
2019-05-13T09:08:42.479Z,22.93
2019-05-13T09:11:12.178Z,23.04
2019-05-13T09:13:42.325Z,23.01
2019-05-13T09:16:13.668Z,22.86
2019-05-13T09:18:43.062Z,22.71
2019-05-13T09:21:12.433Z,22.51
2019-05-13T09:23:42.091Z,22.31
2019-05-13T09:26:12.070Z,22.20
2019-05-13T09:28:41.863Z,22.18
2019-05-13T09:31:12.573Z,22.24
2019-05-13T09:33:42.380Z,22.31
2019-05-13T09:36:12.557Z,22.33
2019-05-13T09:38:42.196Z,22.36
2019-05-13T09:41:12.337Z,22.34
2019-05-13T09:43:42.129Z,22.55
2019-05-13T09:46:11.995Z,22.80
2019-05-13T09:48:42.562Z,22.96
2019-05-13T09:51:12.589Z,23.07
2019-05-13T09:53:42.025Z,23.07
2019-05-13T09:56:11.934Z,23.13
2019-05-13T09:58:42.139Z,23.26
2019-05-13T10:01:12.574Z,23.40
2019-05-13T10:03:53.952Z,23.70
2019-05-13T10:06:16.207Z,24.00
2019-05-13T10:08:45.606Z,24.24
2019-05-13T10:11:14.987Z,24.22
2019-05-13T10:13:44.680Z,24.19
2019-05-13T10:16:15.201Z,24.20
2019-05-13T10:18:44.600Z,24.09
2019-05-13T10:21:14.162Z,23.92
2019-05-13T10:23:43.655Z,23.78
2019-05-13T10:26:14.586Z,23.72
2019-05-13T10:28:45.104Z,23.79
2019-05-13T10:31:14.649Z,23.81
2019-05-13T10:33:44.114Z,23.68
2019-05-13T10:36:13.678Z,23.62
2019-05-13T10:38:43.140Z,23.64
2019-05-13T10:41:12.639Z,23.63
2019-05-13T10:43:44.206Z,23.53
2019-05-13T10:46:13.452Z,23.40
2019-05-13T10:48:42.836Z,23.23
2019-05-13T10:51:13.113Z,23.03
2019-05-13T10:53:42.913Z,22.94
2019-05-13T10:56:12.656Z,22.76
2019-05-13T10:58:42.883Z,22.56
2019-05-13T11:01:12.487Z,22.30
2019-05-13T11:03:42.770Z,22.10
2019-05-13T11:06:26.377Z,22.00
2019-05-13T11:08:56.915Z,21.97
2019-05-13T11:11:26.940Z,21.93
2019-05-13T11:14:06.601Z,21.91
2019-05-13T11:16:28.222Z,21.79
2019-05-13T11:18:57.638Z,21.65
2019-05-13T11:21:27.062Z,21.45
2019-05-13T11:23:57.062Z,21.31
2019-05-13T11:26:27.115Z,21.18
2019-05-13T11:28:57.112Z,21.15
2019-05-13T11:31:27.229Z,21.18
2019-05-13T11:33:57.443Z,21.31
2019-05-13T11:36:27.246Z,21.34
2019-05-13T11:38:57.287Z,21.25
2019-05-13T11:41:27.316Z,21.10
2019-05-13T11:44:12.183Z,21.04
2019-05-13T11:46:28.765Z,20.93
2019-05-13T11:48:58.149Z,20.74
2019-05-13T11:51:27.551Z,20.62
2019-05-13T11:53:57.501Z,20.55
2019-05-13T11:56:27.847Z,20.52
2019-05-13T11:58:57.573Z,20.45
2019-05-13T12:01:27.669Z,20.27
2019-05-13T12:03:57.666Z,20.09
2019-05-13T12:06:27.710Z,19.95
2019-05-13T12:08:58.094Z,19.88
2019-05-13T12:11:28.073Z,19.84
2019-05-13T12:13:57.861Z,19.79
2019-05-13T12:16:27.876Z,19.74
2019-05-13T12:18:57.914Z,19.61
2019-05-13T12:21:27.902Z,19.48
2019-05-13T12:23:57.728Z,19.43
2019-05-13T12:26:27.092Z,19.42
2019-05-13T12:28:56.518Z,19.39
2019-05-13T12:31:25.909Z,19.40
2019-05-13T12:33:55.562Z,19.39
2019-05-13T12:36:25.215Z,19.33
2019-05-13T12:38:54.862Z,19.32
2019-05-13T12:41:24.266Z,19.33
2019-05-13T12:43:54.190Z,19.38
2019-05-13T12:46:24.969Z,19.37
2019-05-13T12:48:54.771Z,19.36
2019-05-13T12:51:24.159Z,19.38
2019-05-13T12:53:53.643Z,19.42
2019-05-13T12:56:23.657Z,19.42
2019-05-13T12:58:53.462Z,19.39
2019-05-13T13:01:23.921Z,19.33
2019-05-13T13:03:53.712Z,19.31
2019-05-13T13:06:32.210Z,19.28
2019-05-13T13:08:54.229Z,19.23
2019-05-13T13:11:23.728Z,19.23
2019-05-13T13:13:58.767Z,19.20
2019-05-13T13:16:33.061Z,19.22
2019-05-13T13:18:55.463Z,19.27
2019-05-13T13:21:33.186Z,19.33
2019-05-13T13:23:56.157Z,19.33
2019-05-13T13:26:25.541Z,19.30
2019-05-13T13:28:56.130Z,19.33
2019-05-13T13:31:26.213Z,19.32
2019-05-13T13:33:55.998Z,19.31
2019-05-13T13:36:25.504Z,19.33
2019-05-13T13:38:57.214Z,19.36
2019-05-13T13:41:26.595Z,19.36
2019-05-13T13:43:56.038Z,19.32
2019-05-13T13:48:56.750Z,19.29
2019-05-13T13:51:27.089Z,19.31
2019-05-13T13:53:56.935Z,19.32
2019-05-13T13:56:26.320Z,19.37
2019-05-13T13:58:55.731Z,19.36
2019-05-13T14:01:27.266Z,19.32
2019-05-13T14:03:56.268Z,19.26
2019-05-13T14:06:58.941Z,19.29
2019-05-13T14:07:22.327Z,19.20
2019-05-13T14:08:56.854Z,19.17
2019-05-13T14:11:26.254Z,19.21
2019-05-13T14:13:55.657Z,19.25
2019-05-13T14:16:31.230Z,19.26
2019-05-13T14:18:56.162Z,19.23
2019-05-13T14:21:25.845Z,19.22
2019-05-13T14:23:55.447Z,19.23
2019-05-13T14:26:25.046Z,19.23
2019-05-13T14:28:54.457Z,19.24
2019-05-13T14:31:23.843Z,19.25
2019-05-13T14:33:53.251Z,19.23
2019-05-13T14:36:23.286Z,19.22
2019-05-13T14:38:53.041Z,19.22
2019-05-13T14:41:22.506Z,19.22
2019-05-13T14:43:51.961Z,19.17
2019-05-13T14:46:30.629Z,19.13
2019-05-13T14:48:57.367Z,19.10
2019-05-13T14:51:26.766Z,19.05
2019-05-13T14:53:56.194Z,19.06
2019-05-13T14:56:25.931Z,19.10
2019-05-13T14:58:55.314Z,19.12
2019-05-13T15:01:24.826Z,19.14
2019-05-13T15:03:54.204Z,19.16
2019-05-13T15:06:23.757Z,19.16
2019-05-13T15:08:53.233Z,19.18
2019-05-13T15:11:22.695Z,19.20
2019-05-13T15:13:52.350Z,19.21
2019-05-13T15:16:22.634Z,19.24
2019-05-13T15:18:52.756Z,19.27
2019-05-13T15:21:22.127Z,19.30
2019-05-13T15:23:51.963Z,19.30
2019-05-13T15:26:22.377Z,19.27
2019-05-13T15:28:52.054Z,19.26
2019-05-13T15:31:22.258Z,19.24
2019-05-13T15:33:52.580Z,19.23
2019-05-13T15:36:22.721Z,19.19
2019-05-13T15:38:52.573Z,19.18
2019-05-13T15:41:22.194Z,19.16
2019-05-13T15:43:52.115Z,19.14
2019-05-13T15:46:22.087Z,19.16
2019-05-13T15:48:51.695Z,19.14
2019-05-13T15:51:22.045Z,19.14
2019-05-13T15:53:51.990Z,19.12
2019-05-13T15:56:22.522Z,19.14
2019-05-13T15:58:53.859Z,19.13
2019-05-13T16:01:23.302Z,19.14
2019-05-13T16:03:52.931Z,19.12
2019-05-13T16:06:22.707Z,19.11
2019-05-13T16:08:52.417Z,19.13
2019-05-13T16:11:22.174Z,19.11
2019-05-13T16:13:52.053Z,19.10
2019-05-13T16:16:22.290Z,19.09
2019-05-13T16:18:51.949Z,19.08
2019-05-13T16:21:24.298Z,19.07
2019-05-13T16:23:53.762Z,19.06
2019-05-13T16:26:26.906Z,19.05
2019-05-13T16:28:54.480Z,19.01
2019-05-13T16:31:23.892Z,18.99
2019-05-13T16:33:53.322Z,18.99
2019-05-13T16:36:22.747Z,19.00
2019-05-13T16:39:02.059Z,19.00
2019-05-13T16:41:36.711Z,18.96
2019-05-13T16:44:06.358Z,18.95
2019-05-13T16:46:35.840Z,18.94
2019-05-13T16:49:06.822Z,18.94
2019-05-13T16:51:38.693Z,18.94
2019-05-13T16:54:09.447Z,18.94
2019-05-13T16:56:42.043Z,18.92
2019-05-13T16:59:11.032Z,18.93
2019-05-13T17:01:42.038Z,18.91
2019-05-13T17:04:12.590Z,18.88
2019-05-13T17:06:42.194Z,18.83
2019-05-13T17:09:11.849Z,18.78
2019-05-13T17:11:41.607Z,18.74
2019-05-13T17:14:11.523Z,18.71
2019-05-13T17:16:41.399Z,18.67
2019-05-13T17:19:12.089Z,18.65
2019-05-13T17:21:41.623Z,18.61
2019-05-13T17:24:12.419Z,18.58
2019-05-13T17:26:43.053Z,18.56
2019-05-13T17:29:12.444Z,18.53
2019-05-13T17:31:41.955Z,18.50
2019-05-13T17:34:12.266Z,18.47
2019-05-13T17:36:42.686Z,18.44
2019-05-13T17:39:12.767Z,18.43
2019-05-13T17:41:42.445Z,18.39
2019-05-13T17:44:14.734Z,18.34
2019-05-13T17:46:49.478Z,18.29
2019-05-13T17:49:19.479Z,18.27
2019-05-13T17:51:57.776Z,18.25
2019-05-13T17:54:27.221Z,18.20
2019-05-13T17:56:58.302Z,18.17
2019-05-13T17:59:28.055Z,18.11
2019-05-13T18:02:02.502Z,18.10
2019-05-13T18:04:31.692Z,18.04
2019-05-13T18:07:01.794Z,17.99
2019-05-13T18:09:34.067Z,17.96
2019-05-13T18:12:15.542Z,17.91
2019-05-13T18:14:48.930Z,17.85
2019-05-13T18:17:57.985Z,17.80
2019-05-13T18:20:15.376Z,17.68
2019-05-13T18:22:45.072Z,17.64
2019-05-13T18:25:14.873Z,17.57
2019-05-13T18:27:48.986Z,17.51
2019-05-13T18:30:19.048Z,17.45
2019-05-13T18:32:52.144Z,17.37
2019-05-13T18:35:23.478Z,17.31
2019-05-13T18:37:53.047Z,17.24
2019-05-13T18:40:23.623Z,17.20
2019-05-13T18:42:59.037Z,17.12
2019-05-13T18:45:30.252Z,17.04
2019-05-13T18:48:01.720Z,16.97
2019-05-13T18:50:37.353Z,16.87
2019-05-13T18:53:08.387Z,16.81
2019-05-13T18:55:41.735Z,16.73
2019-05-13T18:58:11.706Z,16.67
2019-05-13T19:00:41.683Z,16.62
2019-05-13T19:03:12.473Z,16.55
2019-05-13T19:05:42.376Z,16.49
2019-05-13T19:08:12.458Z,16.44
2019-05-13T19:10:42.241Z,16.34
2019-05-13T19:13:13.593Z,16.29
2019-05-13T19:15:43.216Z,16.19
2019-05-13T19:18:14.811Z,16.12
2019-05-13T19:20:45.884Z,16.07
2019-05-13T19:23:34.603Z,16.02
2019-05-13T19:26:04.121Z,15.96
2019-05-13T19:28:33.525Z,15.95
2019-05-13T19:31:02.991Z,15.89
2019-05-13T19:33:32.635Z,15.89
2019-05-13T19:36:02.092Z,15.85
2019-05-13T19:38:32.496Z,15.82
2019-05-13T19:41:02.167Z,15.80
2019-05-13T19:43:34.478Z,15.76
2019-05-13T19:46:03.894Z,15.69
2019-05-13T19:48:33.272Z,15.63
2019-05-13T19:51:02.725Z,15.57
2019-05-13T19:53:32.192Z,15.50
2019-05-13T19:56:01.893Z,15.45
2019-05-13T19:58:32.363Z,15.42
2019-05-13T20:01:02.054Z,15.36
2019-05-13T20:03:31.886Z,15.30
2019-05-13T20:06:02.217Z,15.25
2019-05-13T20:08:32.165Z,15.18
2019-05-13T20:11:02.233Z,15.13
2019-05-13T20:13:31.828Z,15.07
2019-05-13T20:16:01.633Z,15.00
2019-05-13T20:18:34.960Z,14.95
2019-05-13T20:21:04.385Z,14.86
2019-05-13T20:23:33.788Z,14.80
2019-05-13T20:26:03.168Z,14.74
2019-05-13T20:28:32.552Z,14.68
2019-05-13T20:31:02.084Z,14.58
2019-05-13T20:33:32.303Z,14.47
2019-05-13T20:36:02.745Z,14.36
2019-05-13T20:38:32.433Z,14.23
2019-05-13T20:41:01.812Z,14.12
2019-05-13T20:43:32.857Z,14.01
2019-05-13T20:46:02.417Z,13.91
2019-05-13T20:48:32.236Z,13.83
2019-05-13T20:51:02.525Z,13.76
2019-05-13T20:53:32.151Z,13.74
2019-05-13T20:56:01.946Z,13.70
2019-05-13T20:58:32.001Z,13.71
2019-05-13T21:01:02.429Z,13.71
2019-05-13T21:03:32.396Z,13.73
2019-05-13T21:06:01.853Z,13.75
2019-05-13T21:08:32.154Z,13.75
2019-05-13T21:11:02.386Z,13.74
2019-05-13T21:13:32.054Z,13.73
2019-05-13T21:16:02.275Z,13.68
2019-05-13T21:18:33.504Z,13.64
2019-05-13T21:21:02.918Z,13.56
2019-05-13T21:23:32.292Z,13.48
2019-05-13T21:26:01.848Z,13.40
2019-05-13T21:28:31.352Z,13.31
2019-05-13T21:31:02.226Z,13.21
2019-05-13T21:33:31.684Z,13.13
2019-05-13T21:36:01.728Z,13.05
2019-05-13T21:38:32.471Z,12.97
2019-05-13T21:41:02.330Z,12.93
2019-05-13T21:43:32.386Z,12.88
2019-05-13T21:46:02.298Z,12.82
2019-05-13T21:48:32.474Z,12.77
2019-05-13T21:51:02.242Z,12.70
2019-05-13T21:53:32.573Z,12.63
2019-05-13T21:56:02.497Z,12.59
2019-05-13T21:58:31.971Z,12.58
2019-05-13T22:01:02.836Z,12.57
2019-05-13T22:03:33.502Z,12.58
2019-05-13T22:06:03.135Z,12.60
2019-05-13T22:08:32.835Z,12.64
2019-05-13T22:11:02.230Z,12.67
2019-05-13T22:13:31.812Z,12.67
2019-05-13T22:16:01.811Z,12.70
2019-05-13T22:18:31.696Z,12.72
2019-05-13T22:21:01.651Z,12.72
2019-05-13T22:23:32.050Z,12.69
2019-05-13T22:26:01.993Z,12.71
2019-05-13T22:28:31.725Z,12.67
2019-05-13T22:31:01.617Z,12.66
2019-05-13T22:33:32.469Z,12.64
2019-05-13T22:36:02.091Z,12.62
2019-05-13T22:38:32.342Z,12.61
2019-05-13T22:41:02.084Z,12.61
2019-05-13T22:43:32.156Z,12.62
2019-05-13T22:46:01.691Z,12.62
2019-05-13T22:48:31.927Z,12.62
2019-05-13T22:51:01.655Z,12.61
2019-05-13T22:53:31.859Z,12.60
2019-05-13T22:56:01.592Z,12.57
2019-05-13T22:58:32.069Z,12.54
2019-05-13T23:01:02.573Z,12.48
2019-05-13T23:03:32.518Z,12.47
2019-05-13T23:06:01.944Z,12.41
2019-05-13T23:08:32.435Z,12.39
2019-05-13T23:11:02.361Z,12.34
2019-05-13T23:13:31.831Z,12.33
2019-05-13T23:16:02.449Z,12.29
2019-05-13T23:18:32.005Z,12.27
2019-05-13T23:21:20.720Z,12.26
2019-05-13T23:23:51.462Z,12.22
2019-05-13T23:26:21.158Z,12.21
2019-05-13T23:28:52.223Z,12.21
2019-05-13T23:31:21.680Z,12.21
2019-05-13T23:33:51.059Z,12.19
2019-05-13T23:36:21.142Z,12.18
2019-05-13T23:38:51.688Z,12.16
2019-05-13T23:41:21.824Z,12.13
2019-05-13T23:43:51.310Z,12.11
2019-05-13T23:46:22.220Z,12.08
2019-05-13T23:48:52.119Z,12.05
2019-05-13T23:51:21.701Z,12.03
2019-05-13T23:53:51.158Z,12.01
2019-05-13T23:56:21.809Z,11.99
2019-05-13T23:58:51.887Z,11.96
